createdAt,value
2023-02-06T00:01:23.908Z,-1.81
2023-02-06T00:03:51.856Z,-1.80
2023-02-06T00:06:20.352Z,-1.81
2023-02-06T00:08:48.301Z,-1.73
2023-02-06T00:11:21.285Z,-1.73
2023-02-06T00:13:49.678Z,-1.68
2023-02-06T00:16:20.988Z,-1.78
2023-02-06T00:18:49.688Z,-2.22
2023-02-06T00:21:22.142Z,-2.66
2023-02-06T00:23:50.885Z,-2.83
2023-02-06T00:26:19.182Z,-3.04
2023-02-06T00:28:47.904Z,-3.33
2023-02-06T00:31:16.231Z,-3.22
2023-02-06T00:33:44.534Z,-3.05
2023-02-06T00:36:12.675Z,-2.90
2023-02-06T00:38:40.626Z,-2.63
2023-02-06T00:41:08.708Z,-2.56
2023-02-06T00:43:36.778Z,-2.64
2023-02-06T00:46:05.364Z,-2.55
2023-02-06T00:48:33.748Z,-2.39
2023-02-06T00:51:01.716Z,-2.45
2023-02-06T00:53:30.335Z,-2.47
2023-02-06T00:55:59.539Z,-2.28
2023-02-06T00:58:27.688Z,-2.22
2023-02-06T01:00:55.984Z,-2.24
2023-02-06T01:03:24.718Z,-2.25
2023-02-06T01:05:52.784Z,-2.08
2023-02-06T01:08:20.839Z,-1.93
2023-02-06T01:10:49.032Z,-1.83
2023-02-06T01:13:17.114Z,-1.59
2023-02-06T01:15:45.088Z,-1.57
2023-02-06T01:18:13.025Z,-1.71
2023-02-06T01:20:41.610Z,-1.78
2023-02-06T01:23:09.779Z,-2.02
2023-02-06T01:25:38.197Z,-1.98
2023-02-06T01:28:06.419Z,-1.82
2023-02-06T01:30:34.472Z,-1.89
2023-02-06T01:33:02.650Z,-2.34
2023-02-06T01:35:31.054Z,-2.71
2023-02-06T01:37:59.124Z,-2.77
2023-02-06T01:40:27.035Z,-2.84
2023-02-06T01:42:55.093Z,-3.19
2023-02-06T01:45:23.646Z,-3.41
2023-02-06T01:48:02.054Z,-3.66
2023-02-06T01:50:31.831Z,-3.69
2023-02-06T01:53:00.291Z,-3.58
2023-02-06T01:55:28.727Z,-3.59
2023-02-06T01:57:57.610Z,-3.81
2023-02-06T02:00:25.704Z,-3.78
2023-02-06T02:02:54.119Z,-3.57
2023-02-06T02:05:23.300Z,-3.34
2023-02-06T02:07:55.133Z,-3.42
2023-02-06T02:10:23.082Z,-3.32
2023-02-06T02:12:51.158Z,-3.20
2023-02-06T02:15:20.227Z,-3.25
2023-02-06T02:18:11.565Z,-3.43
2023-02-06T02:20:51.923Z,-3.36
2023-02-06T02:23:26.242Z,-3.38
2023-02-06T02:26:18.371Z,-3.33
2023-02-06T02:28:55.664Z,-3.41
2023-02-06T02:31:26.490Z,-3.25
2023-02-06T02:34:20.432Z,-3.41
2023-02-06T02:36:52.429Z,-3.57
2023-02-06T02:39:27.778Z,-3.48
2023-02-06T02:41:55.741Z,-3.62
2023-02-06T02:44:23.819Z,-3.63
2023-02-06T02:46:54.450Z,-3.43
2023-02-06T02:49:25.177Z,-3.33
2023-02-06T02:51:54.173Z,-3.18
2023-02-06T02:54:22.328Z,-3.24
2023-02-06T02:56:50.422Z,-3.45
2023-02-06T02:59:23.768Z,-3.55
2023-02-06T03:02:13.142Z,-3.67
2023-02-06T03:04:44.930Z,-3.80
2023-02-06T03:07:13.121Z,-3.80
2023-02-06T03:09:46.472Z,-3.66
2023-02-06T03:12:14.678Z,-3.54
2023-02-06T03:15:02.898Z,-3.67
2023-02-06T03:17:39.383Z,-3.64
2023-02-06T03:20:08.955Z,-3.86
2023-02-06T03:22:37.911Z,-4.29
2023-02-06T03:25:10.437Z,-4.61
2023-02-06T03:27:40.210Z,-4.43
2023-02-06T03:30:09.708Z,-4.27
2023-02-06T03:32:42.040Z,-4.11
2023-02-06T03:35:16.694Z,-3.95
2023-02-06T03:37:45.387Z,-3.73
2023-02-06T03:40:13.893Z,-3.69
2023-02-06T03:42:45.672Z,-3.51
2023-02-06T03:45:17.178Z,-3.67
2023-02-06T03:47:47.250Z,-3.54
2023-02-06T03:50:16.190Z,-3.44
2023-02-06T03:52:47.171Z,-3.28
2023-02-06T03:55:18.953Z,-3.30
2023-02-06T03:57:50.476Z,-3.27
2023-02-06T04:00:19.066Z,-3.21
2023-02-06T04:02:47.827Z,-3.28
2023-02-06T04:05:17.520Z,-3.09
2023-02-06T04:07:45.686Z,-2.89
2023-02-06T04:10:13.779Z,-2.75
2023-02-06T04:12:41.821Z,-3.19
2023-02-06T04:15:10.401Z,-3.17
2023-02-06T04:17:53.472Z,-3.09
2023-02-06T04:20:25.879Z,-3.56
2023-02-06T04:22:53.975Z,-3.83
2023-02-06T04:25:22.168Z,-4.18
2023-02-06T04:27:50.747Z,-4.06
2023-02-06T04:30:19.106Z,-4.06
2023-02-06T04:32:47.328Z,-4.17
2023-02-06T04:35:15.268Z,-4.07
2023-02-06T04:37:43.278Z,-3.76
2023-02-06T04:40:11.985Z,-3.55
2023-02-06T04:42:40.014Z,-3.27
2023-02-06T04:45:08.601Z,-3.03
2023-02-06T04:47:36.858Z,-2.85
2023-02-06T04:50:05.956Z,-2.58
2023-02-06T04:52:34.248Z,-2.36
2023-02-06T04:55:02.195Z,-2.36
2023-02-06T04:57:30.190Z,-2.34
2023-02-06T04:59:58.269Z,-2.39
2023-02-06T05:02:26.550Z,-2.32
2023-02-06T05:04:54.819Z,-2.30
2023-02-06T05:07:22.815Z,-2.24
2023-02-06T05:09:50.845Z,-2.09
2023-02-06T05:12:18.831Z,-2.07
2023-02-06T05:14:46.822Z,-2.30
2023-02-06T05:17:14.780Z,-2.26
2023-02-06T05:19:42.794Z,-2.28
2023-02-06T05:22:10.933Z,-2.43
2023-02-06T05:24:38.929Z,-2.44
2023-02-06T05:27:07.099Z,-2.60
2023-02-06T05:29:35.172Z,-2.60
2023-02-06T05:32:03.772Z,-2.58
2023-02-06T05:34:31.836Z,-2.81
2023-02-06T05:36:59.898Z,-2.95
2023-02-06T05:39:28.085Z,-2.96
2023-02-06T05:41:56.068Z,-2.97
2023-02-06T05:44:24.308Z,-2.95
2023-02-06T05:46:52.281Z,-2.82
2023-02-06T05:49:20.516Z,-3.01
2023-02-06T05:51:48.545Z,-2.86
2023-02-06T05:54:18.543Z,-2.76
2023-02-06T05:56:46.712Z,-2.58
2023-02-06T05:59:14.753Z,-2.15
2023-02-06T06:01:42.699Z,-1.47
2023-02-06T06:04:11.300Z,-0.73
2023-02-06T06:06:39.399Z,-0.35
2023-02-06T06:09:07.579Z,-0.16
2023-02-06T06:11:35.521Z,0.05
2023-02-06T06:14:03.722Z,0.63
2023-02-06T06:16:32.265Z,1.15
2023-02-06T06:19:01.911Z,1.75
2023-02-06T06:21:31.028Z,2.14
2023-02-06T06:23:59.065Z,2.56
2023-02-06T06:26:27.264Z,2.72
2023-02-06T06:28:56.140Z,2.94
2023-02-06T06:31:24.274Z,3.15
2023-02-06T06:33:52.988Z,4.06
2023-02-06T06:36:21.107Z,4.82
2023-02-06T06:38:49.222Z,5.10
2023-02-06T06:41:17.375Z,4.80
2023-02-06T06:43:45.300Z,5.08
2023-02-06T06:46:13.378Z,5.38
2023-02-06T06:48:41.352Z,5.33
2023-02-06T06:51:09.293Z,5.56
2023-02-06T06:53:40.195Z,5.12
2023-02-06T06:56:10.689Z,3.78
2023-02-06T06:58:38.707Z,2.90
2023-02-06T07:01:06.747Z,2.47
2023-02-06T07:03:35.254Z,2.42
2023-02-06T07:06:03.837Z,2.61
2023-02-06T07:08:32.043Z,2.61
2023-02-06T07:11:00.061Z,2.40
2023-02-06T07:13:28.365Z,2.17
2023-02-06T07:15:56.320Z,2.52
2023-02-06T07:18:24.284Z,3.01
2023-02-06T07:20:52.465Z,3.80
2023-02-06T07:23:20.733Z,4.87
2023-02-06T07:25:49.090Z,5.75
2023-02-06T07:28:17.214Z,5.90
2023-02-06T07:30:45.378Z,6.11
2023-02-06T07:33:13.529Z,6.49
2023-02-06T07:35:43.037Z,6.51
2023-02-06T07:38:11.314Z,5.55
2023-02-06T07:40:45.203Z,5.44
2023-02-06T07:43:13.880Z,4.92
2023-02-06T07:45:42.206Z,4.58
2023-02-06T07:48:12.268Z,4.43
2023-02-06T07:50:40.673Z,4.19
2023-02-06T07:53:08.661Z,4.30
2023-02-06T07:55:38.433Z,4.46
2023-02-06T07:58:06.719Z,4.67
2023-02-06T08:00:34.762Z,4.64
2023-02-06T08:03:04.852Z,4.03
2023-02-06T08:05:33.985Z,4.01
2023-02-06T08:08:02.228Z,3.93
2023-02-06T08:10:30.579Z,3.92
2023-02-06T08:12:58.836Z,3.94
2023-02-06T08:15:27.055Z,3.57
2023-02-06T08:17:55.280Z,3.46
2023-02-06T08:20:23.314Z,3.25
2023-02-06T08:22:51.380Z,3.19
2023-02-06T08:25:19.794Z,2.79
2023-02-06T08:27:48.034Z,2.55
2023-02-06T08:30:16.284Z,2.47
2023-02-06T08:32:44.320Z,2.29
2023-02-06T08:35:12.997Z,2.24
2023-02-06T08:37:41.147Z,2.18
2023-02-06T08:40:09.817Z,2.51
2023-02-06T08:42:37.935Z,2.59
2023-02-06T08:45:06.212Z,2.33
2023-02-06T08:47:34.353Z,1.83
2023-02-06T08:50:03.662Z,1.41
2023-02-06T08:52:32.186Z,1.20
2023-02-06T08:55:00.122Z,1.15
2023-02-06T08:57:28.296Z,0.54
2023-02-06T08:59:57.055Z,-0.05
2023-02-06T09:02:25.031Z,-0.03
2023-02-06T09:04:53.091Z,0.14
2023-02-06T09:07:21.917Z,-0.05
2023-02-06T09:09:50.110Z,0.05
2023-02-06T09:12:18.102Z,-0.05
2023-02-06T09:14:46.304Z,0.20
2023-02-06T09:17:14.288Z,0.22
2023-02-06T09:19:42.211Z,0.21
2023-02-06T09:22:10.398Z,0.19
2023-02-06T09:24:38.490Z,0.42
2023-02-06T09:27:06.691Z,0.76
2023-02-06T09:29:35.041Z,1.38
2023-02-06T09:32:03.351Z,1.65
2023-02-06T09:34:31.383Z,2.01
2023-02-06T09:37:01.846Z,2.36
2023-02-06T09:39:30.576Z,2.58
2023-02-06T09:42:13.109Z,2.95
2023-02-06T09:44:56.000Z,3.62
2023-02-06T09:47:26.860Z,3.93
2023-02-06T09:49:58.585Z,4.19
2023-02-06T09:52:32.924Z,4.57
2023-02-06T09:55:04.003Z,4.62
2023-02-06T09:57:52.195Z,4.48
2023-02-06T10:00:20.302Z,4.51
2023-02-06T10:03:14.517Z,4.44
2023-02-06T10:06:06.912Z,4.86
2023-02-06T10:08:37.541Z,4.84
2023-02-06T10:11:28.425Z,4.94
2023-02-06T10:14:02.240Z,4.70
2023-02-06T10:16:30.365Z,4.75
2023-02-06T10:19:01.471Z,5.11
2023-02-06T10:22:04.861Z,4.95
2023-02-06T10:24:41.340Z,5.11
2023-02-06T10:27:11.878Z,5.21
2023-02-06T10:29:41.484Z,5.45
2023-02-06T10:32:15.367Z,5.72
2023-02-06T10:35:01.874Z,5.90
2023-02-06T10:37:53.187Z,6.28
2023-02-06T10:40:36.318Z,6.39
2023-02-06T10:43:13.245Z,6.68
2023-02-06T10:45:46.789Z,6.87
2023-02-06T10:48:31.898Z,6.98
2023-02-06T10:51:22.315Z,6.92
2023-02-06T10:53:52.242Z,7.25
2023-02-06T10:56:26.598Z,6.60
2023-02-06T10:58:57.419Z,6.29
2023-02-06T11:01:27.126Z,6.01
2023-02-06T11:04:00.961Z,5.85
2023-02-06T11:06:30.191Z,5.50
2023-02-06T11:08:58.414Z,5.36
2023-02-06T11:11:31.008Z,5.19
2023-02-06T11:14:02.023Z,5.23
2023-02-06T11:16:31.136Z,5.40
2023-02-06T11:19:01.857Z,5.59
2023-02-06T11:21:42.005Z,5.63
2023-02-06T11:24:11.154Z,5.55
2023-02-06T11:26:59.340Z,5.45
2023-02-06T11:29:37.250Z,5.73
2023-02-06T11:32:24.474Z,5.67
2023-02-06T11:35:00.781Z,5.53
2023-02-06T11:37:37.102Z,5.58
2023-02-06T11:40:14.210Z,5.27
2023-02-06T11:42:42.953Z,4.82
2023-02-06T11:45:23.254Z,4.56
2023-02-06T11:47:51.249Z,4.63
2023-02-06T11:50:27.132Z,4.36
2023-02-06T11:52:59.813Z,4.26
2023-02-06T11:55:30.133Z,4.19
2023-02-06T11:58:13.098Z,4.31
2023-02-06T12:00:57.520Z,4.23
2023-02-06T12:03:28.762Z,4.31
2023-02-06T12:06:01.975Z,4.46
2023-02-06T12:08:50.333Z,4.60
2023-02-06T12:11:22.966Z,4.82
2023-02-06T12:13:54.753Z,5.19
2023-02-06T12:16:23.372Z,5.09
2023-02-06T12:18:54.334Z,5.28
2023-02-06T12:21:41.805Z,5.32
2023-02-06T12:24:19.155Z,5.33
2023-02-06T12:26:47.857Z,5.39
2023-02-06T12:29:20.288Z,5.60
2023-02-06T12:31:53.140Z,5.58
2023-02-06T12:34:32.000Z,5.81
2023-02-06T12:37:15.055Z,6.09
2023-02-06T12:39:43.808Z,6.32
2023-02-06T12:42:32.124Z,5.97
2023-02-06T12:45:27.684Z,5.79
2023-02-06T12:47:59.573Z,5.64
2023-02-06T12:50:36.628Z,5.55
2023-02-06T12:53:07.230Z,5.44
2023-02-06T12:55:37.815Z,5.18
2023-02-06T12:58:22.156Z,5.26
2023-02-06T13:01:25.820Z,5.46
2023-02-06T13:03:58.669Z,5.66
2023-02-06T13:06:33.680Z,5.51
2023-02-06T13:09:04.189Z,5.53
2023-02-06T13:11:35.773Z,5.52
2023-02-06T13:14:15.717Z,5.45
2023-02-06T13:17:04.948Z,5.48
2023-02-06T13:19:41.645Z,5.35
2023-02-06T13:22:09.732Z,5.74
2023-02-06T13:24:38.620Z,5.75
2023-02-06T13:27:12.159Z,5.82
2023-02-06T13:29:47.637Z,5.92
2023-02-06T13:32:15.705Z,6.09
2023-02-06T13:34:43.797Z,6.02
2023-02-06T13:37:30.479Z,6.05
2023-02-06T13:40:31.328Z,6.13
2023-02-06T13:43:19.659Z,6.05
2023-02-06T13:45:59.149Z,6.19
2023-02-06T13:48:39.276Z,5.94
2023-02-06T13:51:25.960Z,5.52
2023-02-06T13:54:16.628Z,5.47
2023-02-06T13:57:10.711Z,5.75
2023-02-06T13:59:46.696Z,5.61
2023-02-06T14:02:35.195Z,5.43
2023-02-06T14:05:05.132Z,5.29
2023-02-06T14:07:33.440Z,5.34
2023-02-06T14:10:19.530Z,5.08
2023-02-06T14:12:56.685Z,5.28
2023-02-06T14:15:33.536Z,5.34
2023-02-06T14:18:20.516Z,5.18
2023-02-06T14:20:52.905Z,5.15
2023-02-06T14:23:39.749Z,5.02
2023-02-06T14:26:15.628Z,5.10
2023-02-06T14:29:02.452Z,5.34
2023-02-06T14:31:38.571Z,5.47
2023-02-06T14:34:06.744Z,5.47
2023-02-06T14:36:40.961Z,5.45
2023-02-06T14:39:12.218Z,5.44
2023-02-06T14:41:40.450Z,5.53
2023-02-06T14:44:12.054Z,5.54
2023-02-06T14:46:41.749Z,5.73
2023-02-06T14:49:15.977Z,5.70
2023-02-06T14:51:48.460Z,5.59
2023-02-06T14:54:33.518Z,5.55
2023-02-06T14:57:02.971Z,5.44
2023-02-06T14:59:31.685Z,5.44
2023-02-06T15:02:11.766Z,5.46
2023-02-06T15:04:49.014Z,5.47
2023-02-06T15:07:25.110Z,5.41
2023-02-06T15:09:58.721Z,5.19
2023-02-06T15:12:29.204Z,5.07
2023-02-06T15:15:05.318Z,4.85
2023-02-06T15:17:34.534Z,4.86
2023-02-06T15:20:15.994Z,4.83
2023-02-06T15:22:44.277Z,4.81
2023-02-06T15:25:18.461Z,4.61
2023-02-06T15:27:46.778Z,4.67
2023-02-06T15:30:22.207Z,4.57
2023-02-06T15:32:51.393Z,4.40
2023-02-06T15:35:33.375Z,3.95
2023-02-06T15:38:05.850Z,3.70
2023-02-06T15:40:35.995Z,3.50
2023-02-06T15:43:04.983Z,3.56
2023-02-06T15:45:36.117Z,3.59
2023-02-06T15:48:21.224Z,3.24
2023-02-06T15:51:07.470Z,3.20
2023-02-06T15:53:37.895Z,3.01
2023-02-06T15:56:16.406Z,2.99
2023-02-06T15:58:44.631Z,3.18
2023-02-06T16:01:19.130Z,3.33
2023-02-06T16:03:53.461Z,3.44
2023-02-06T16:06:22.353Z,3.41
2023-02-06T16:08:52.638Z,3.03
2023-02-06T16:11:40.057Z,2.77
2023-02-06T16:14:17.202Z,2.64
2023-02-06T16:16:55.519Z,2.58
2023-02-06T16:19:38.154Z,2.72
2023-02-06T16:22:15.269Z,2.65
2023-02-06T16:24:43.565Z,2.54
2023-02-06T16:27:16.432Z,2.61
2023-02-06T16:29:46.836Z,2.60
2023-02-06T16:32:21.200Z,2.43
2023-02-06T16:34:49.257Z,2.26
2023-02-06T16:37:19.377Z,1.86
2023-02-06T16:39:48.008Z,1.62
2023-02-06T16:42:18.331Z,1.64
2023-02-06T16:44:49.938Z,1.52
2023-02-06T16:47:20.007Z,1.20
2023-02-06T16:49:52.245Z,0.99
2023-02-06T16:52:25.987Z,1.02
2023-02-06T16:54:56.019Z,0.76
2023-02-06T16:57:26.420Z,0.73
2023-02-06T16:59:54.416Z,0.90
2023-02-06T17:02:23.897Z,1.17
2023-02-06T17:04:52.066Z,1.37
2023-02-06T17:07:22.067Z,1.60
2023-02-06T17:09:50.851Z,1.77
2023-02-06T17:12:20.217Z,1.61
2023-02-06T17:14:48.988Z,1.57
2023-02-06T17:17:18.961Z,1.40
2023-02-06T17:19:47.644Z,1.12
2023-02-06T17:22:16.143Z,0.90
2023-02-06T17:24:44.714Z,0.82
2023-02-06T17:27:14.820Z,0.76
2023-02-06T17:29:43.411Z,0.76
2023-02-06T17:32:13.520Z,0.81
2023-02-06T17:34:41.592Z,0.69
2023-02-06T17:37:12.438Z,0.54
2023-02-06T17:39:40.351Z,0.55
2023-02-06T17:42:08.371Z,0.61
2023-02-06T17:44:36.537Z,0.83
2023-02-06T17:47:07.475Z,0.80
2023-02-06T17:49:35.545Z,0.94
2023-02-06T17:52:03.931Z,1.01
2023-02-06T17:54:31.941Z,1.05
2023-02-06T17:56:59.962Z,1.19
2023-02-06T17:59:28.047Z,1.12
2023-02-06T18:01:56.140Z,1.11
2023-02-06T18:04:24.769Z,1.07
2023-02-06T18:06:53.464Z,0.96
2023-02-06T18:09:21.544Z,0.78
2023-02-06T18:11:49.813Z,0.66
2023-02-06T18:14:17.886Z,0.61
2023-02-06T18:16:47.280Z,0.72
2023-02-06T18:19:16.085Z,0.56
2023-02-06T18:21:44.160Z,0.57
2023-02-06T18:24:12.211Z,0.44
2023-02-06T18:26:40.168Z,0.23
2023-02-06T18:29:08.185Z,0.23
2023-02-06T18:31:36.720Z,0.34
2023-02-06T18:34:08.061Z,0.27
2023-02-06T18:36:37.139Z,-0.01
2023-02-06T18:39:06.147Z,-0.07
2023-02-06T18:41:52.973Z,-0.32
2023-02-06T18:44:21.036Z,-0.58
2023-02-06T18:46:49.180Z,-0.61
2023-02-06T18:49:17.793Z,-0.79
2023-02-06T18:51:45.918Z,-0.92
2023-02-06T18:54:14.148Z,-1.11
2023-02-06T18:56:42.278Z,-1.13
2023-02-06T18:59:10.207Z,-1.24
2023-02-06T19:01:38.228Z,-1.21
2023-02-06T19:04:06.426Z,-1.26
2023-02-06T19:06:36.648Z,-1.18
2023-02-06T19:09:09.229Z,-1.23
2023-02-06T19:11:37.588Z,-1.19
2023-02-06T19:14:07.253Z,-1.13
2023-02-06T19:16:38.579Z,-1.05
2023-02-06T19:19:09.524Z,-0.77
2023-02-06T19:21:38.418Z,-0.55
2023-02-06T19:24:07.507Z,-0.56
2023-02-06T19:26:35.446Z,-0.52
2023-02-06T19:29:03.814Z,-0.54
2023-02-06T19:31:32.541Z,-0.76
2023-02-06T19:34:01.999Z,-1.03
2023-02-06T19:36:30.480Z,-1.33
2023-02-06T19:39:00.292Z,-1.47
2023-02-06T19:41:29.593Z,-1.72
2023-02-06T19:43:58.484Z,-1.81
2023-02-06T19:46:27.364Z,-1.85
2023-02-06T19:48:55.859Z,-1.81
2023-02-06T19:51:28.517Z,-1.78
2023-02-06T19:53:57.100Z,-1.64
2023-02-06T19:56:26.622Z,-1.36
2023-02-06T19:58:55.206Z,-1.04
2023-02-06T20:01:24.205Z,-0.86
2023-02-06T20:03:53.040Z,-0.76
2023-02-06T20:06:21.398Z,-0.78
2023-02-06T20:08:49.714Z,-0.59
2023-02-06T20:11:19.634Z,-0.61
2023-02-06T20:13:48.521Z,-0.33
2023-02-06T20:16:18.217Z,-0.28
2023-02-06T20:18:46.166Z,-0.25
2023-02-06T20:21:28.330Z,-0.20
2023-02-06T20:23:58.060Z,0.06
2023-02-06T20:26:27.653Z,0.05
2023-02-06T20:28:56.499Z,0.10
2023-02-06T20:31:24.543Z,0.06
2023-02-06T20:33:53.358Z,0.14
2023-02-06T20:36:23.484Z,-0.07
2023-02-06T20:38:58.722Z,-0.23
2023-02-06T20:41:28.704Z,-0.64
2023-02-06T20:43:57.402Z,-0.88
2023-02-06T20:46:26.931Z,-0.92
2023-02-06T20:49:01.217Z,-0.74
2023-02-06T20:51:29.720Z,-0.87
2023-02-06T20:53:58.292Z,-1.01
2023-02-06T20:56:27.081Z,-1.03
2023-02-06T20:58:58.152Z,-1.07
2023-02-06T21:01:28.194Z,-1.03
2023-02-06T21:03:58.055Z,-0.93
2023-02-06T21:06:26.938Z,-1.04
2023-02-06T21:09:00.221Z,-1.04
2023-02-06T21:11:31.073Z,-1.04
2023-02-06T21:14:00.579Z,-1.17
2023-02-06T21:16:29.847Z,-1.14
2023-02-06T21:18:58.653Z,-1.30
2023-02-06T21:21:27.137Z,-1.51
2023-02-06T21:23:58.278Z,-1.35
2023-02-06T21:26:27.799Z,-1.43
2023-02-06T21:28:55.900Z,-1.81
2023-02-06T21:31:25.617Z,-1.84
2023-02-06T21:33:53.842Z,-1.88
2023-02-06T21:36:22.949Z,-1.78
2023-02-06T21:38:51.212Z,-1.83
2023-02-06T21:41:19.245Z,-1.84
2023-02-06T21:43:47.556Z,-1.83
2023-02-06T21:46:15.807Z,-1.78
2023-02-06T21:48:44.098Z,-1.62
2023-02-06T21:51:13.775Z,-1.65
2023-02-06T21:53:42.528Z,-1.65
2023-02-06T21:56:15.277Z,-1.83
2023-02-06T21:58:43.422Z,-2.08
2023-02-06T22:01:18.728Z,-2.20
2023-02-06T22:03:47.364Z,-2.07
2023-02-06T22:06:20.222Z,-2.15
2023-02-06T22:08:51.867Z,-2.15
2023-02-06T22:11:21.370Z,-2.55
2023-02-06T22:13:50.793Z,-2.48
2023-02-06T22:16:21.831Z,-2.48
2023-02-06T22:18:50.212Z,-2.73
2023-02-06T22:21:20.494Z,-2.73
2023-02-06T22:23:49.613Z,-2.54
2023-02-06T22:26:18.872Z,-2.35
2023-02-06T22:28:47.218Z,-2.28
2023-02-06T22:31:17.801Z,-2.18
2023-02-06T22:33:46.217Z,-2.02
2023-02-06T22:36:15.934Z,-1.75
2023-02-06T22:38:45.429Z,-1.74
2023-02-06T22:41:16.944Z,-1.77
2023-02-06T22:43:46.182Z,-1.94
2023-02-06T22:46:18.602Z,-2.17
2023-02-06T22:48:46.698Z,-2.14
2023-02-06T22:51:17.450Z,-2.47
2023-02-06T22:53:46.138Z,-2.80
2023-02-06T22:56:28.023Z,-2.71
2023-02-06T22:58:57.743Z,-2.59
2023-02-06T23:01:29.294Z,-2.58
2023-02-06T23:03:57.904Z,-2.47
2023-02-06T23:06:27.392Z,-2.44
2023-02-06T23:08:56.575Z,-2.49
2023-02-06T23:11:25.081Z,-2.50
2023-02-06T23:13:54.495Z,-2.61
2023-02-06T23:16:22.677Z,-2.59
2023-02-06T23:18:51.219Z,-2.44
2023-02-06T23:21:20.972Z,-2.33
2023-02-06T23:23:49.389Z,-2.53
2023-02-06T23:26:18.384Z,-2.84
2023-02-06T23:28:46.654Z,-2.97
2023-02-06T23:31:14.694Z,-3.05
2023-02-06T23:33:43.015Z,-3.35
2023-02-06T23:36:12.694Z,-3.59
2023-02-06T23:38:41.111Z,-3.75
2023-02-06T23:41:11.389Z,-3.75
2023-02-06T23:43:39.964Z,-3.75
2023-02-06T23:46:11.999Z,-4.02
2023-02-06T23:48:40.733Z,-4.20
2023-02-06T23:51:08.782Z,-4.28
2023-02-06T23:53:36.882Z,-4.35
2023-02-06T23:56:18.833Z,-4.45
2023-02-06T23:58:47.213Z,-4.44
